aviador You're here:

KNSE Decoded Metar

MILTON in FL, USA
Report Time2017-08-19 10:56:00
UTC Time2017-08-19 11:12:59
Flight Rules vfr VFR
WindCalm
Visibility9999 m
Phenomena:N/A
Clouds:N/A
Expected CloudBase > 400 ft AGL from Temp-Dew spread
CeilingNone
Temp23°C (ISA +8)
Dew Point22°C (94% RH)
QNH1015 hPa
Density Alt1,457 ft
Elevation200 ft
Report Wrong Elevation
Raw Report
KNSE 191056Z AUTO 00000KT 10SM CLR 23/22 A2998 RMK AO2 SLP136
T02280222 $=

Extra information for KNSE:More info

Metar Taf Metar & Taf Last 4 Metars F.Rules Stats Wind Profile Meteogram Temp Stats Airport Information Weather charts Add Link Nearby VenuesMetar ALERT Operation Metar Decoded Social comments

AIRNAV info for KNSE